sensor_id;sensor_type;location;lat;lon;timestamp;temperature;humidity
52189;DHT22;38162;45.926;13.608;2023-12-22T00:01:42;7.60;99.90
52189;DHT22;38162;45.926;13.608;2023-12-22T00:04:08;7.60;99.90
52189;DHT22;38162;45.926;13.608;2023-12-22T00:06:34;7.60;99.90
52189;DHT22;38162;45.926;13.608;2023-12-22T00:08:59;7.60;99.90
52189;DHT22;38162;45.926;13.608;2023-12-22T00:11:25;7.50;99.90
52189;DHT22;38162;45.926;13.608;2023-12-22T00:13:51;7.50;99.90
52189;DHT22;38162;45.926;13.608;2023-12-22T00:16:17;7.60;99.90
52189;DHT22;38162;45.926;13.608;2023-12-22T00:18:43;7.60;99.90
52189;DHT22;38162;45.926;13.608;2023-12-22T00:21:12;7.60;99.90
52189;DHT22;38162;45.926;13.608;2023-12-22T00:23:37;7.60;99.90
52189;DHT22;38162;45.926;13.608;2023-12-22T00:26:06;7.60;99.90
52189;DHT22;38162;45.926;13.608;2023-12-22T00:28:32;7.60;99.90
52189;DHT22;38162;45.926;13.608;2023-12-22T00:30:58;7.60;99.90
52189;DHT22;38162;45.926;13.608;2023-12-22T00:33:24;7.60;99.90
52189;DHT22;38162;45.926;13.608;2023-12-22T00:35:51;7.60;99.90
52189;DHT22;38162;45.926;13.608;2023-12-22T00:38:17;7.60;99.90
52189;DHT22;38162;45.926;13.608;2023-12-22T00:40:42;7.50;99.90
52189;DHT22;38162;45.926;13.608;2023-12-22T00:43:08;7.50;99.90
52189;DHT22;38162;45.926;13.608;2023-12-22T00:45:34;7.50;99.90
52189;DHT22;38162;45.926;13.608;2023-12-22T00:48:00;7.50;99.90
52189;DHT22;38162;45.926;13.608;2023-12-22T00:50:25;7.40;99.90
52189;DHT22;38162;45.926;13.608;2023-12-22T00:52:51;7.40;99.90
52189;DHT22;38162;45.926;13.608;2023-12-22T00:55:17;7.40;99.90
52189;DHT22;38162;45.926;13.608;2023-12-22T00:57:43;7.40;99.90
52189;DHT22;38162;45.926;13.608;2023-12-22T01:00:09;7.30;99.90
52189;DHT22;38162;45.926;13.608;2023-12-22T01:02:38;7.40;99.90
52189;DHT22;38162;45.926;13.608;2023-12-22T01:05:04;7.30;99.90
52189;DHT22;38162;45.926;13.608;2023-12-22T01:07:30;7.30;99.90
52189;DHT22;38162;45.926;13.608;2023-12-22T01:09:56;7.30;99.90
52189;DHT22;38162;45.926;13.608;2023-12-22T01:12:27;7.30;99.90
52189;DHT22;38162;45.926;13.608;2023-12-22T01:14:53;7.30;99.90
52189;DHT22;38162;45.926;13.608;2023-12-22T01:17:19;7.30;99.90
52189;DHT22;38162;45.926;13.608;2023-12-22T01:19:45;7.30;99.90
52189;DHT22;38162;45.926;13.608;2023-12-22T01:22:11;7.30;99.90
52189;DHT22;38162;45.926;13.608;2023-12-22T01:24:37;7.30;99.90
52189;DHT22;38162;45.926;13.608;2023-12-22T01:27:05;7.30;99.90
52189;DHT22;38162;45.926;13.608;2023-12-22T01:29:31;7.30;99.90
52189;DHT22;38162;45.926;13.608;2023-12-22T01:31:56;7.30;99.90
52189;DHT22;38162;45.926;13.608;2023-12-22T01:34:22;7.30;99.90
52189;DHT22;38162;45.926;13.608;2023-12-22T01:36:48;7.30;99.90
52189;DHT22;38162;45.926;13.608;2023-12-22T01:39:15;7.30;99.90
52189;DHT22;38162;45.926;13.608;2023-12-22T01:41:41;7.30;99.90
52189;DHT22;38162;45.926;13.608;2023-12-22T01:44:07;7.30;99.90
52189;DHT22;38162;45.926;13.608;2023-12-22T01:46:32;7.30;99.90
52189;DHT22;38162;45.926;13.608;2023-12-22T01:49:00;7.30;99.90
52189;DHT22;38162;45.926;13.608;2023-12-22T01:51:33;7.30;99.90
52189;DHT22;38162;45.926;13.608;2023-12-22T01:54:00;7.30;99.90
52189;DHT22;38162;45.926;13.608;2023-12-22T01:56:26;7.30;99.90
52189;DHT22;38162;45.926;13.608;2023-12-22T01:58:58;7.30;99.90
52189;DHT22;38162;45.926;13.608;2023-12-22T02:01:24;7.30;99.90
52189;DHT22;38162;45.926;13.608;2023-12-22T02:03:51;7.30;99.90
52189;DHT22;38162;45.926;13.608;2023-12-22T02:06:18;7.30;99.90
52189;DHT22;38162;45.926;13.608;2023-12-22T02:08:47;7.30;99.90
52189;DHT22;38162;45.926;13.608;2023-12-22T02:11:16;7.30;99.90
52189;DHT22;38162;45.926;13.608;2023-12-22T02:13:43;7.30;99.90
52189;DHT22;38162;45.926;13.608;2023-12-22T02:18:51;7.40;99.90
52189;DHT22;38162;45.926;13.608;2023-12-22T02:21:18;7.40;99.90
52189;DHT22;38162;45.926;13.608;2023-12-22T02:23:43;7.40;99.90
52189;DHT22;38162;45.926;13.608;2023-12-22T02:28:50;7.40;99.90
52189;DHT22;38162;45.926;13.608;2023-12-22T02:31:27;7.50;99.90
52189;DHT22;38162;45.926;13.608;2023-12-22T02:33:59;7.50;99.90
52189;DHT22;38162;45.926;13.608;2023-12-22T02:36:25;7.40;99.90
52189;DHT22;38162;45.926;13.608;2023-12-22T02:38:53;7.50;99.90
52189;DHT22;38162;45.926;13.608;2023-12-22T02:41:21;7.40;99.90
52189;DHT22;38162;45.926;13.608;2023-12-22T02:43:47;7.40;99.90
52189;DHT22;38162;45.926;13.608;2023-12-22T02:46:16;7.40;99.90
52189;DHT22;38162;45.926;13.608;2023-12-22T02:48:42;7.30;99.90
52189;DHT22;38162;45.926;13.608;2023-12-22T02:51:07;7.30;99.90
52189;DHT22;38162;45.926;13.608;2023-12-22T02:53:33;7.20;99.90
52189;DHT22;38162;45.926;13.608;2023-12-22T02:55:59;7.20;99.90
52189;DHT22;38162;45.926;13.608;2023-12-22T02:58:25;7.20;99.90
52189;DHT22;38162;45.926;13.608;2023-12-22T03:00:50;7.20;99.90
52189;DHT22;38162;45.926;13.608;2023-12-22T03:03:16;7.20;99.90
52189;DHT22;38162;45.926;13.608;2023-12-22T03:05:42;7.20;99.90
52189;DHT22;38162;45.926;13.608;2023-12-22T03:08:08;7.20;99.90
52189;DHT22;38162;45.926;13.608;2023-12-22T03:10:33;7.10;99.90
52189;DHT22;38162;45.926;13.608;2023-12-22T03:12:59;7.10;99.90
52189;DHT22;38162;45.926;13.608;2023-12-22T03:15:25;7.10;99.90
52189;DHT22;38162;45.926;13.608;2023-12-22T03:17:51;7.10;99.90
52189;DHT22;38162;45.926;13.608;2023-12-22T03:20:16;7.10;99.90
52189;DHT22;38162;45.926;13.608;2023-12-22T03:22:43;7.10;99.90
52189;DHT22;38162;45.926;13.608;2023-12-22T03:25:08;7.10;99.90
52189;DHT22;38162;45.926;13.608;2023-12-22T03:27:34;7.10;99.90
52189;DHT22;38162;45.926;13.608;2023-12-22T03:30:00;7.10;99.90
52189;DHT22;38162;45.926;13.608;2023-12-22T03:32:27;7.10;99.90
52189;DHT22;38162;45.926;13.608;2023-12-22T03:34:53;7.10;99.90
52189;DHT22;38162;45.926;13.608;2023-12-22T03:37:19;7.00;99.90
52189;DHT22;38162;45.926;13.608;2023-12-22T03:39:44;7.00;99.90
52189;DHT22;38162;45.926;13.608;2023-12-22T03:42:10;7.00;99.90
52189;DHT22;38162;45.926;13.608;2023-12-22T03:44:36;7.00;99.90
52189;DHT22;38162;45.926;13.608;2023-12-22T03:47:02;7.00;99.90
52189;DHT22;38162;45.926;13.608;2023-12-22T03:49:27;7.00;99.90
52189;DHT22;38162;45.926;13.608;2023-12-22T03:51:53;7.00;99.90
52189;DHT22;38162;45.926;13.608;2023-12-22T03:54:19;7.00;99.90
52189;DHT22;38162;45.926;13.608;2023-12-22T03:56:45;6.90;99.90
52189;DHT22;38162;45.926;13.608;2023-12-22T03:59:10;7.00;99.90
52189;DHT22;38162;45.926;13.608;2023-12-22T04:01:36;6.90;99.90
52189;DHT22;38162;45.926;13.608;2023-12-22T04:04:02;6.90;99.90
52189;DHT22;38162;45.926;13.608;2023-12-22T04:12:24;6.90;99.90
52189;DHT22;38162;45.926;13.608;2023-12-22T04:14:50;6.90;99.90
52189;DHT22;38162;45.926;13.608;2023-12-22T04:17:15;6.90;99.90
52189;DHT22;38162;45.926;13.608;2023-12-22T04:19:41;6.90;99.90
52189;DHT22;38162;45.926;13.608;2023-12-22T04:22:07;7.00;99.90
52189;DHT22;38162;45.926;13.608;2023-12-22T04:24:32;7.00;99.90
52189;DHT22;38162;45.926;13.608;2023-12-22T04:26:58;7.00;99.90
52189;DHT22;38162;45.926;13.608;2023-12-22T04:29:24;6.90;99.90
52189;DHT22;38162;45.926;13.608;2023-12-22T04:31:50;6.90;99.90
52189;DHT22;38162;45.926;13.608;2023-12-22T04:34:15;6.90;99.90
52189;DHT22;38162;45.926;13.608;2023-12-22T04:36:41;6.90;99.90
52189;DHT22;38162;45.926;13.608;2023-12-22T04:39:07;6.90;99.90
52189;DHT22;38162;45.926;13.608;2023-12-22T04:41:33;6.90;99.90
52189;DHT22;38162;45.926;13.608;2023-12-22T04:43:59;7.00;99.90
52189;DHT22;38162;45.926;13.608;2023-12-22T04:46:29;7.00;99.90
52189;DHT22;38162;45.926;13.608;2023-12-22T04:48:55;7.00;99.90
52189;DHT22;38162;45.926;13.608;2023-12-22T04:51:21;7.00;99.90
52189;DHT22;38162;45.926;13.608;2023-12-22T04:53:47;7.00;99.90
52189;DHT22;38162;45.926;13.608;2023-12-22T04:56:13;7.10;99.90
52189;DHT22;38162;45.926;13.608;2023-12-22T04:58:38;7.10;99.90
52189;DHT22;38162;45.926;13.608;2023-12-22T05:01:04;7.10;99.90
52189;DHT22;38162;45.926;13.608;2023-12-22T05:03:30;7.10;99.90
52189;DHT22;38162;45.926;13.608;2023-12-22T05:05:56;7.00;99.90
52189;DHT22;38162;45.926;13.608;2023-12-22T05:08:21;7.00;99.90
52189;DHT22;38162;45.926;13.608;2023-12-22T05:10:47;7.00;99.90
52189;DHT22;38162;45.926;13.608;2023-12-22T05:13:13;7.00;99.90
52189;DHT22;38162;45.926;13.608;2023-12-22T05:15:39;7.00;99.90
52189;DHT22;38162;45.926;13.608;2023-12-22T05:18:04;7.00;99.90
52189;DHT22;38162;45.926;13.608;2023-12-22T05:20:30;7.00;99.90
52189;DHT22;38162;45.926;13.608;2023-12-22T05:22:56;7.00;99.90
52189;DHT22;38162;45.926;13.608;2023-12-22T05:25:22;7.00;99.90
52189;DHT22;38162;45.926;13.608;2023-12-22T05:27:48;7.00;99.90
52189;DHT22;38162;45.926;13.608;2023-12-22T05:30:14;7.00;99.90
52189;DHT22;38162;45.926;13.608;2023-12-22T05:32:39;6.90;99.90
52189;DHT22;38162;45.926;13.608;2023-12-22T05:35:05;6.90;99.90
52189;DHT22;38162;45.926;13.608;2023-12-22T05:37:31;6.90;99.90
52189;DHT22;38162;45.926;13.608;2023-12-22T05:39:57;7.00;99.90
52189;DHT22;38162;45.926;13.608;2023-12-22T05:42:22;7.00;99.90
52189;DHT22;38162;45.926;13.608;2023-12-22T05:44:48;6.90;99.90
52189;DHT22;38162;45.926;13.608;2023-12-22T05:47:16;6.90;99.90
52189;DHT22;38162;45.926;13.608;2023-12-22T05:49:44;6.90;99.90
52189;DHT22;38162;45.926;13.608;2023-12-22T05:52:11;6.90;99.90
52189;DHT22;38162;45.926;13.608;2023-12-22T05:54:38;6.80;99.90
52189;DHT22;38162;45.926;13.608;2023-12-22T05:57:04;6.80;99.90
52189;DHT22;38162;45.926;13.608;2023-12-22T05:59:32;6.70;99.90
52189;DHT22;38162;45.926;13.608;2023-12-22T06:01:58;6.70;99.90
52189;DHT22;38162;45.926;13.608;2023-12-22T06:04:25;6.70;99.90
52189;DHT22;38162;45.926;13.608;2023-12-22T06:06:51;6.60;99.90
52189;DHT22;38162;45.926;13.608;2023-12-22T06:09:16;6.60;99.90
52189;DHT22;38162;45.926;13.608;2023-12-22T06:11:44;6.60;99.90
52189;DHT22;38162;45.926;13.608;2023-12-22T06:14:10;6.60;99.90
52189;DHT22;38162;45.926;13.608;2023-12-22T06:16:36;6.70;99.90
52189;DHT22;38162;45.926;13.608;2023-12-22T06:19:01;6.70;99.90
52189;DHT22;38162;45.926;13.608;2023-12-22T06:21:27;6.80;99.90
52189;DHT22;38162;45.926;13.608;2023-12-22T06:23:53;6.70;99.90
52189;DHT22;38162;45.926;13.608;2023-12-22T06:26:19;6.80;99.90
52189;DHT22;38162;45.926;13.608;2023-12-22T06:28:44;6.80;99.90
52189;DHT22;38162;45.926;13.608;2023-12-22T06:31:18;6.90;99.90
52189;DHT22;38162;45.926;13.608;2023-12-22T06:33:44;6.90;99.90
52189;DHT22;38162;45.926;13.608;2023-12-22T06:36:20;6.90;99.90
52189;DHT22;38162;45.926;13.608;2023-12-22T06:38:47;6.90;99.90
52189;DHT22;38162;45.926;13.608;2023-12-22T06:41:24;7.00;99.90
52189;DHT22;38162;45.926;13.608;2023-12-22T06:43:50;7.00;99.90
52189;DHT22;38162;45.926;13.608;2023-12-22T06:46:17;7.00;99.90
52189;DHT22;38162;45.926;13.608;2023-12-22T06:48:44;7.00;99.90
52189;DHT22;38162;45.926;13.608;2023-12-22T06:53:45;7.10;99.90
52189;DHT22;38162;45.926;13.608;2023-12-22T06:56:25;7.10;99.90
52189;DHT22;38162;45.926;13.608;2023-12-22T06:58:52;7.10;99.90
52189;DHT22;38162;45.926;13.608;2023-12-22T07:03:48;7.10;99.90
52189;DHT22;38162;45.926;13.608;2023-12-22T07:06:15;7.10;99.90
52189;DHT22;38162;45.926;13.608;2023-12-22T07:08:41;7.10;99.90
52189;DHT22;38162;45.926;13.608;2023-12-22T07:11:11;7.10;99.90
52189;DHT22;38162;45.926;13.608;2023-12-22T07:13:37;7.00;99.90
52189;DHT22;38162;45.926;13.608;2023-12-22T07:16:04;7.00;99.90
52189;DHT22;38162;45.926;13.608;2023-12-22T07:18:30;7.00;99.90
52189;DHT22;38162;45.926;13.608;2023-12-22T07:20:57;7.00;99.90
52189;DHT22;38162;45.926;13.608;2023-12-22T07:23:23;7.00;99.90
52189;DHT22;38162;45.926;13.608;2023-12-22T07:25:49;7.00;99.90
52189;DHT22;38162;45.926;13.608;2023-12-22T07:28:15;7.00;99.90
52189;DHT22;38162;45.926;13.608;2023-12-22T07:30:43;7.00;99.90
52189;DHT22;38162;45.926;13.608;2023-12-22T07:33:09;7.00;99.90
52189;DHT22;38162;45.926;13.608;2023-12-22T07:35:34;7.00;99.90
52189;DHT22;38162;45.926;13.608;2023-12-22T07:38:00;7.00;99.90
52189;DHT22;38162;45.926;13.608;2023-12-22T07:40:28;7.00;99.90
52189;DHT22;38162;45.926;13.608;2023-12-22T07:42:56;7.00;99.90
52189;DHT22;38162;45.926;13.608;2023-12-22T07:45:22;7.00;99.90
52189;DHT22;38162;45.926;13.608;2023-12-22T07:47:48;7.00;99.90
52189;DHT22;38162;45.926;13.608;2023-12-22T07:50:14;7.00;99.90
52189;DHT22;38162;45.926;13.608;2023-12-22T07:52:39;7.00;99.90
52189;DHT22;38162;45.926;13.608;2023-12-22T07:55:07;7.00;99.90
52189;DHT22;38162;45.926;13.608;2023-12-22T07:57:33;7.00;99.90
52189;DHT22;38162;45.926;13.608;2023-12-22T07:59:59;7.00;99.90
52189;DHT22;38162;45.926;13.608;2023-12-22T08:02:25;7.00;99.90
52189;DHT22;38162;45.926;13.608;2023-12-22T08:04:50;7.00;99.90
52189;DHT22;38162;45.926;13.608;2023-12-22T08:07:16;7.00;99.90
52189;DHT22;38162;45.926;13.608;2023-12-22T08:09:42;7.00;99.90
52189;DHT22;38162;45.926;13.608;2023-12-22T08:12:08;7.10;99.90
52189;DHT22;38162;45.926;13.608;2023-12-22T08:14:34;7.10;99.90
52189;DHT22;38162;45.926;13.608;2023-12-22T08:17:00;7.10;99.90
52189;DHT22;38162;45.926;13.608;2023-12-22T08:19:25;7.10;99.90
52189;DHT22;38162;45.926;13.608;2023-12-22T08:21:55;7.10;99.90
52189;DHT22;38162;45.926;13.608;2023-12-22T08:24:21;7.20;99.90
52189;DHT22;38162;45.926;13.608;2023-12-22T08:26:47;7.20;99.90
52189;DHT22;38162;45.926;13.608;2023-12-22T08:29:13;7.20;99.90
52189;DHT22;38162;45.926;13.608;2023-12-22T08:31:39;7.30;99.90
52189;DHT22;38162;45.926;13.608;2023-12-22T08:34:05;7.30;99.90
52189;DHT22;38162;45.926;13.608;2023-12-22T08:36:31;7.30;99.90
52189;DHT22;38162;45.926;13.608;2023-12-22T08:38:57;7.40;99.90
52189;DHT22;38162;45.926;13.608;2023-12-22T08:41:23;7.40;99.90
52189;DHT22;38162;45.926;13.608;2023-12-22T08:43:49;7.50;99.90
52189;DHT22;38162;45.926;13.608;2023-12-22T08:46:15;7.60;99.90
52189;DHT22;38162;45.926;13.608;2023-12-22T08:48:41;7.70;99.90
52189;DHT22;38162;45.926;13.608;2023-12-22T08:51:07;7.70;99.90
52189;DHT22;38162;45.926;13.608;2023-12-22T08:53:34;7.70;99.90
52189;DHT22;38162;45.926;13.608;2023-12-22T08:56:03;7.80;99.90
52189;DHT22;38162;45.926;13.608;2023-12-22T08:58:29;7.90;99.90
52189;DHT22;38162;45.926;13.608;2023-12-22T09:00:55;8.00;99.90
52189;DHT22;38162;45.926;13.608;2023-12-22T09:03:21;8.00;99.90
52189;DHT22;38162;45.926;13.608;2023-12-22T09:05:46;8.10;99.90
52189;DHT22;38162;45.926;13.608;2023-12-22T09:08:12;8.20;99.90
52189;DHT22;38162;45.926;13.608;2023-12-22T09:10:38;8.30;99.90
52189;DHT22;38162;45.926;13.608;2023-12-22T09:13:04;8.30;99.90
52189;DHT22;38162;45.926;13.608;2023-12-22T09:15:30;8.40;99.90
52189;DHT22;38162;45.926;13.608;2023-12-22T09:17:56;8.50;99.90
52189;DHT22;38162;45.926;13.608;2023-12-22T09:20:22;8.60;99.90
52189;DHT22;38162;45.926;13.608;2023-12-22T09:22:48;8.70;99.90
52189;DHT22;38162;45.926;13.608;2023-12-22T09:25:13;8.80;99.90
52189;DHT22;38162;45.926;13.608;2023-12-22T09:27:39;8.90;99.90
52189;DHT22;38162;45.926;13.608;2023-12-22T09:30:05;9.00;99.90
52189;DHT22;38162;45.926;13.608;2023-12-22T09:32:34;9.10;99.90
52189;DHT22;38162;45.926;13.608;2023-12-22T09:35:00;9.10;99.90
52189;DHT22;38162;45.926;13.608;2023-12-22T09:37:26;9.20;99.90
52189;DHT22;38162;45.926;13.608;2023-12-22T09:39:52;9.30;99.90
52189;DHT22;38162;45.926;13.608;2023-12-22T09:42:20;9.40;99.90
52189;DHT22;38162;45.926;13.608;2023-12-22T09:44:49;9.50;99.90
52189;DHT22;38162;45.926;13.608;2023-12-22T09:47:19;9.50;99.90
52189;DHT22;38162;45.926;13.608;2023-12-22T09:49:45;9.60;99.90
52189;DHT22;38162;45.926;13.608;2023-12-22T09:52:12;9.70;99.90
52189;DHT22;38162;45.926;13.608;2023-12-22T09:54:40;9.70;99.90
52189;DHT22;38162;45.926;13.608;2023-12-22T09:57:07;9.70;99.90
52189;DHT22;38162;45.926;13.608;2023-12-22T09:59:33;9.80;99.90
52189;DHT22;38162;45.926;13.608;2023-12-22T10:02:02;9.80;99.90
52189;DHT22;38162;45.926;13.608;2023-12-22T10:04:28;9.80;99.90
52189;DHT22;38162;45.926;13.608;2023-12-22T10:06:58;9.80;99.90
52189;DHT22;38162;45.926;13.608;2023-12-22T10:09:27;9.70;99.90
52189;DHT22;38162;45.926;13.608;2023-12-22T10:11:52;9.60;99.90
52189;DHT22;38162;45.926;13.608;2023-12-22T10:14:20;9.50;99.90
52189;DHT22;38162;45.926;13.608;2023-12-22T10:16:51;9.50;99.90
52189;DHT22;38162;45.926;13.608;2023-12-22T10:19:17;9.40;99.90
52189;DHT22;38162;45.926;13.608;2023-12-22T10:21:43;9.40;99.90
52189;DHT22;38162;45.926;13.608;2023-12-22T10:24:44;9.50;99.90
52189;DHT22;38162;45.926;13.608;2023-12-22T10:27:13;9.50;99.90
52189;DHT22;38162;45.926;13.608;2023-12-22T10:29:40;9.50;99.90
52189;DHT22;38162;45.926;13.608;2023-12-22T10:32:06;9.50;99.90
52189;DHT22;38162;45.926;13.608;2023-12-22T10:34:32;9.50;99.90
52189;DHT22;38162;45.926;13.608;2023-12-22T10:37:00;9.60;99.90
52189;DHT22;38162;45.926;13.608;2023-12-22T10:39:30;9.60;99.90
52189;DHT22;38162;45.926;13.608;2023-12-22T10:42:00;9.60;99.90
52189;DHT22;38162;45.926;13.608;2023-12-22T10:44:27;9.70;99.90
52189;DHT22;38162;45.926;13.608;2023-12-22T10:46:53;9.70;99.90
52189;DHT22;38162;45.926;13.608;2023-12-22T10:49:21;9.70;99.90
52189;DHT22;38162;45.926;13.608;2023-12-22T10:51:47;9.80;99.90
52189;DHT22;38162;45.926;13.608;2023-12-22T10:54:13;9.80;99.90
52189;DHT22;38162;45.926;13.608;2023-12-22T10:56:39;9.90;99.90
52189;DHT22;38162;45.926;13.608;2023-12-22T10:59:05;9.90;99.90
52189;DHT22;38162;45.926;13.608;2023-12-22T11:01:36;10.00;99.90
52189;DHT22;38162;45.926;13.608;2023-12-22T11:04:08;10.10;99.90
52189;DHT22;38162;45.926;13.608;2023-12-22T11:06:38;10.10;99.90
52189;DHT22;38162;45.926;13.608;2023-12-22T11:09:09;10.20;99.90
52189;DHT22;38162;45.926;13.608;2023-12-22T11:11:38;10.20;99.90
52189;DHT22;38162;45.926;13.608;2023-12-22T11:14:04;10.30;99.90
52189;DHT22;38162;45.926;13.608;2023-12-22T11:16:32;10.30;99.90
52189;DHT22;38162;45.926;13.608;2023-12-22T11:19:02;10.40;99.90
52189;DHT22;38162;45.926;13.608;2023-12-22T11:21:28;10.50;99.90
52189;DHT22;38162;45.926;13.608;2023-12-22T11:23:55;10.50;99.90
52189;DHT22;38162;45.926;13.608;2023-12-22T11:26:22;10.50;99.90
52189;DHT22;38162;45.926;13.608;2023-12-22T11:33:50;10.50;99.90
52189;DHT22;38162;45.926;13.608;2023-12-22T11:36:18;10.70;99.90
52189;DHT22;38162;45.926;13.608;2023-12-22T11:38:45;10.70;99.90
52189;DHT22;38162;45.926;13.608;2023-12-22T11:41:16;10.70;99.90
52189;DHT22;38162;45.926;13.608;2023-12-22T11:43:42;10.80;99.90
52189;DHT22;38162;45.926;13.608;2023-12-22T11:46:10;10.80;99.90
52189;DHT22;38162;45.926;13.608;2023-12-22T11:48:35;10.90;99.90
52189;DHT22;38162;45.926;13.608;2023-12-22T11:51:12;10.90;99.90
52189;DHT22;38162;45.926;13.608;2023-12-22T11:53:39;11.00;99.90
52189;DHT22;38162;45.926;13.608;2023-12-22T11:56:06;11.00;99.90
52189;DHT22;38162;45.926;13.608;2023-12-22T11:58:41;11.10;99.90
52189;DHT22;38162;45.926;13.608;2023-12-22T12:01:12;11.10;99.90
52189;DHT22;38162;45.926;13.608;2023-12-22T12:03:42;11.10;99.90
52189;DHT22;38162;45.926;13.608;2023-12-22T12:08:43;11.20;99.90
52189;DHT22;38162;45.926;13.608;2023-12-22T12:11:09;11.20;99.90
52189;DHT22;38162;45.926;13.608;2023-12-22T12:13:41;11.20;99.90
52189;DHT22;38162;45.926;13.608;2023-12-22T12:16:07;11.20;99.90
52189;DHT22;38162;45.926;13.608;2023-12-22T12:18:33;11.20;99.90
52189;DHT22;38162;45.926;13.608;2023-12-22T12:21:00;11.20;99.90
52189;DHT22;38162;45.926;13.608;2023-12-22T12:23:29;11.30;99.90
52189;DHT22;38162;45.926;13.608;2023-12-22T12:25:55;11.30;99.90
52189;DHT22;38162;45.926;13.608;2023-12-22T12:28:26;11.20;99.90
52189;DHT22;38162;45.926;13.608;2023-12-22T12:30:59;11.30;99.90
52189;DHT22;38162;45.926;13.608;2023-12-22T12:33:26;11.30;99.90
52189;DHT22;38162;45.926;13.608;2023-12-22T12:35:57;11.30;99.90
52189;DHT22;38162;45.926;13.608;2023-12-22T12:38:36;11.30;99.90
52189;DHT22;38162;45.926;13.608;2023-12-22T12:41:05;11.30;99.90
52189;DHT22;38162;45.926;13.608;2023-12-22T12:43:31;11.30;99.90
52189;DHT22;38162;45.926;13.608;2023-12-22T12:46:05;11.30;99.90
52189;DHT22;38162;45.926;13.608;2023-12-22T12:48:31;11.30;99.90
52189;DHT22;38162;45.926;13.608;2023-12-22T12:51:04;11.20;99.90
52189;DHT22;38162;45.926;13.608;2023-12-22T12:53:33;11.20;99.90
52189;DHT22;38162;45.926;13.608;2023-12-22T12:56:01;11.20;99.90
52189;DHT22;38162;45.926;13.608;2023-12-22T12:58:30;11.20;99.90
52189;DHT22;38162;45.926;13.608;2023-12-22T13:01:04;11.20;99.90
52189;DHT22;38162;45.926;13.608;2023-12-22T13:08:35;11.20;99.90
52189;DHT22;38162;45.926;13.608;2023-12-22T13:11:01;11.10;99.90
52189;DHT22;38162;45.926;13.608;2023-12-22T13:13:27;11.10;99.90
52189;DHT22;38162;45.926;13.608;2023-12-22T13:15:53;11.10;99.90
52189;DHT22;38162;45.926;13.608;2023-12-22T13:18:19;11.10;99.90
52189;DHT22;38162;45.926;13.608;2023-12-22T13:20:45;11.00;99.90
52189;DHT22;38162;45.926;13.608;2023-12-22T13:23:10;11.00;99.90
52189;DHT22;38162;45.926;13.608;2023-12-22T13:25:40;11.00;99.90
52189;DHT22;38162;45.926;13.608;2023-12-22T13:28:06;11.00;99.90
52189;DHT22;38162;45.926;13.608;2023-12-22T13:30:39;11.00;99.90
52189;DHT22;38162;45.926;13.608;2023-12-22T13:33:09;11.00;99.90
52189;DHT22;38162;45.926;13.608;2023-12-22T13:35:36;11.00;99.90
52189;DHT22;38162;45.926;13.608;2023-12-22T13:38:05;11.00;99.90
52189;DHT22;38162;45.926;13.608;2023-12-22T13:40:32;11.00;99.90
52189;DHT22;38162;45.926;13.608;2023-12-22T13:42:58;11.00;99.90
52189;DHT22;38162;45.926;13.608;2023-12-22T13:45:25;11.00;99.90
52189;DHT22;38162;45.926;13.608;2023-12-22T13:47:51;10.90;99.90
52189;DHT22;38162;45.926;13.608;2023-12-22T13:50:17;10.90;99.90
52189;DHT22;38162;45.926;13.608;2023-12-22T13:52:44;10.90;99.90
52189;DHT22;38162;45.926;13.608;2023-12-22T13:55:14;10.90;99.90
52189;DHT22;38162;45.926;13.608;2023-12-22T13:57:41;10.90;99.90
52189;DHT22;38162;45.926;13.608;2023-12-22T14:02:48;10.90;99.90
52189;DHT22;38162;45.926;13.608;2023-12-22T14:05:18;10.90;99.90
52189;DHT22;38162;45.926;13.608;2023-12-22T14:07:44;10.90;99.90
52189;DHT22;38162;45.926;13.608;2023-12-22T14:10:10;10.90;99.90
52189;DHT22;38162;45.926;13.608;2023-12-22T14:12:37;10.90;99.90
52189;DHT22;38162;45.926;13.608;2023-12-22T14:15:07;10.90;99.90
52189;DHT22;38162;45.926;13.608;2023-12-22T14:17:33;10.90;99.90
52189;DHT22;38162;45.926;13.608;2023-12-22T14:19:59;10.90;99.90
52189;DHT22;38162;45.926;13.608;2023-12-22T14:22:25;10.90;99.90
52189;DHT22;38162;45.926;13.608;2023-12-22T14:24:52;10.90;99.90
52189;DHT22;38162;45.926;13.608;2023-12-22T14:27:17;10.90;99.90
52189;DHT22;38162;45.926;13.608;2023-12-22T14:29:44;10.90;99.90
52189;DHT22;38162;45.926;13.608;2023-12-22T14:32:10;10.90;99.90
52189;DHT22;38162;45.926;13.608;2023-12-22T14:34:40;10.90;99.90
52189;DHT22;38162;45.926;13.608;2023-12-22T14:37:06;10.90;99.90
52189;DHT22;38162;45.926;13.608;2023-12-22T14:39:32;10.90;99.90
52189;DHT22;38162;45.926;13.608;2023-12-22T14:41:59;10.90;99.90
52189;DHT22;38162;45.926;13.608;2023-12-22T14:44:25;10.90;99.90
52189;DHT22;38162;45.926;13.608;2023-12-22T14:46:50;10.90;99.90
52189;DHT22;38162;45.926;13.608;2023-12-22T14:49:16;10.80;99.90
52189;DHT22;38162;45.926;13.608;2023-12-22T14:51:43;10.80;99.90
52189;DHT22;38162;45.926;13.608;2023-12-22T14:54:09;10.80;99.90
52189;DHT22;38162;45.926;13.608;2023-12-22T14:56:38;10.80;99.90
52189;DHT22;38162;45.926;13.608;2023-12-22T14:59:09;10.70;99.90
52189;DHT22;38162;45.926;13.608;2023-12-22T15:01:35;10.70;99.90
52189;DHT22;38162;45.926;13.608;2023-12-22T15:04:01;10.70;99.90
52189;DHT22;38162;45.926;13.608;2023-12-22T15:06:28;10.60;99.90
52189;DHT22;38162;45.926;13.608;2023-12-22T15:08:55;10.60;99.90
52189;DHT22;38162;45.926;13.608;2023-12-22T15:11:20;10.60;99.90
52189;DHT22;38162;45.926;13.608;2023-12-22T15:13:46;10.60;99.90
52189;DHT22;38162;45.926;13.608;2023-12-22T15:16:12;10.50;99.90
52189;DHT22;38162;45.926;13.608;2023-12-22T15:18:37;10.50;99.90
52189;DHT22;38162;45.926;13.608;2023-12-22T15:21:04;10.40;99.90
52189;DHT22;38162;45.926;13.608;2023-12-22T15:23:29;10.40;99.90
52189;DHT22;38162;45.926;13.608;2023-12-22T15:25:59;10.40;99.90
52189;DHT22;38162;45.926;13.608;2023-12-22T15:28:25;10.40;99.90
52189;DHT22;38162;45.926;13.608;2023-12-22T15:30:51;10.30;99.90
52189;DHT22;38162;45.926;13.608;2023-12-22T15:33:17;10.30;99.90
52189;DHT22;38162;45.926;13.608;2023-12-22T15:35:43;10.20;99.90
52189;DHT22;38162;45.926;13.608;2023-12-22T15:38:09;10.20;99.90
52189;DHT22;38162;45.926;13.608;2023-12-22T15:40:36;10.10;99.90
52189;DHT22;38162;45.926;13.608;2023-12-22T15:43:02;10.10;99.90
52189;DHT22;38162;45.926;13.608;2023-12-22T15:45:28;10.10;99.90
52189;DHT22;38162;45.926;13.608;2023-12-22T15:47:53;10.00;99.90
52189;DHT22;38162;45.926;13.608;2023-12-22T15:50:19;10.00;99.90
52189;DHT22;38162;45.926;13.608;2023-12-22T15:52:45;10.00;99.90
52189;DHT22;38162;45.926;13.608;2023-12-22T15:55:10;10.00;99.90
52189;DHT22;38162;45.926;13.608;2023-12-22T15:57:39;9.90;99.90